Time;durP1;ratioP1;P1;durP2;ratioP2;P2;SDS_P1;SDS_P2;PMS_P1;PMS_P2;Temp;Humidity;BMP_temperature;BMP_pressure;BME280_temperature;BME280_humidity;BME280_pressure;Samples;Min_cycle;Max_cycle;Signal;HPM_P1;HPM_P2
2022/12/10 00:00:58;;;;;;;23.00;8.00;;;;;;;1.41;100.00;97607.23;2249018;79;21060;-58
2022/12/10 00:03:59;;;;;;;21.87;8.08;;;;;;;1.42;100.00;97605.04;2249201;79;21036;-58
2022/12/10 00:07:01;;;;;;;21.53;7.63;;;;;;;1.35;100.00;97613.06;2249123;79;21119;-58
2022/12/10 00:10:03;;;;;;;23.60;8.77;;;;;;;1.43;100.00;97617.89;2249308;79;21306;-59
2022/12/10 00:13:04;;;;;;;24.45;8.05;;;;;;;1.44;100.00;97598.05;2249105;79;21048;-58
2022/12/10 00:16:05;;;;;;;22.85;7.75;;;;;;;1.43;100.00;97593.81;2249298;79;21511;-59
2022/12/10 00:19:07;;;;;;;25.72;8.10;;;;;;;1.37;100.00;97593.16;2249343;79;21009;-58
2022/12/10 00:22:08;;;;;;;22.67;7.50;;;;;;;1.37;100.00;97589.75;2249072;79;21037;-58
2022/12/10 00:25:10;;;;;;;20.47;7.33;;;;;;;1.39;100.00;97595.67;2249487;79;21056;-60
2022/12/10 00:28:11;;;;;;;21.37;6.87;;;;;;;1.45;100.00;97598.01;2249051;79;21021;-58
2022/12/10 00:31:13;;;;;;;20.05;6.58;;;;;;;1.45;100.00;97595.86;2249239;79;21025;-59
2022/12/10 00:34:14;;;;;;;21.25;6.90;;;;;;;1.52;100.00;97608.47;2249008;79;21089;-59
2022/12/10 00:37:16;;;;;;;21.17;7.28;;;;;;;1.62;100.00;97619.22;2249078;79;21031;-59
2022/12/10 00:40:18;;;;;;;21.15;7.60;;;;;;;1.68;100.00;97615.52;2249333;79;21049;-58
2022/12/10 00:43:19;;;;;;;23.67;7.20;;;;;;;1.72;100.00;97622.23;2249487;79;21059;-60
2022/12/10 00:46:21;;;;;;;20.80;7.20;;;;;;;1.75;100.00;97618.22;2249064;79;21021;-59
2022/12/10 00:49:24;;;;;;;20.77;7.40;;;;;;;1.74;100.00;97606.22;2249347;79;21571;-59
2022/12/10 00:52:25;;;;;;;21.55;7.58;;;;;;;1.76;100.00;97610.86;2249178;79;20965;-58
2022/12/10 00:55:27;;;;;;;22.35;7.92;;;;;;;1.73;100.00;97604.07;2249168;79;21060;-58
2022/12/10 00:58:28;;;;;;;23.20;7.87;;;;;;;1.70;100.00;97601.63;2249274;79;21511;-58
2022/12/10 01:01:31;;;;;;;21.50;8.23;;;;;;;1.65;100.00;97603.59;2251376;79;21064;-58
2022/12/10 01:04:33;;;;;;;22.42;8.13;;;;;;;1.66;100.00;97607.84;2255899;79;21267;-59
2022/12/10 01:07:34;;;;;;;23.95;8.40;;;;;;;1.69;100.00;97610.75;2255742;79;20977;-60
2022/12/10 01:10:36;;;;;;;23.52;8.08;;;;;;;1.67;100.00;97611.28;2256272;79;21028;-58
2022/12/10 01:13:37;;;;;;;24.27;8.93;;;;;;;1.72;100.00;97616.64;2256134;79;21045;-58
2022/12/10 01:16:39;;;;;;;23.20;8.55;;;;;;;1.69;100.00;97621.09;2256298;79;21503;-58
2022/12/10 01:19:40;;;;;;;23.38;8.35;;;;;;;1.69;100.00;97614.16;2256149;79;21009;-58
2022/12/10 01:22:42;;;;;;;24.53;8.63;;;;;;;1.69;100.00;97610.75;2256805;79;21500;-58
2022/12/10 01:25:43;;;;;;;24.15;8.88;;;;;;;1.62;100.00;97607.58;2256236;79;21073;-59
2022/12/10 01:28:44;;;;;;;23.30;8.38;;;;;;;1.63;100.00;97607.98;2256137;79;20965;-59
2022/12/10 01:31:47;;;;;;;23.70;9.30;;;;;;;1.58;100.00;97608.66;2255751;79;20992;-59
2022/12/10 01:34:49;;;;;;;23.92;9.05;;;;;;;1.52;100.00;97623.11;2256282;79;21412;-58
2022/12/10 01:37:50;;;;;;;24.80;9.58;;;;;;;1.52;100.00;97614.06;2256070;79;21021;-58
2022/12/10 01:40:52;;;;;;;25.48;9.73;;;;;;;1.51;100.00;97603.37;2256286;79;21507;-58
2022/12/10 01:43:53;;;;;;;25.57;10.43;;;;;;;1.47;100.00;97597.48;2256244;79;21059;-58
2022/12/10 01:46:54;;;;;;;27.22;10.75;;;;;;;1.43;100.00;97588.64;2256092;79;21040;-59
2022/12/10 01:49:56;;;;;;;27.75;10.43;;;;;;;1.42;100.00;97596.00;2256381;79;21589;-58
2022/12/10 01:52:57;;;;;;;26.70;10.88;;;;;;;1.42;100.00;97599.87;2256139;79;20949;-58
2022/12/10 01:55:59;;;;;;;27.60;11.40;;;;;;;1.32;100.00;97596.84;2256250;79;21610;-58
2022/12/10 01:59:00;;;;;;;27.97;11.80;;;;;;;1.38;100.00;97593.55;2255986;79;20992;-59
2022/12/10 02:02:02;;;;;;;29.07;12.03;;;;;;;1.33;100.00;97592.90;2253095;79;21284;-59
2022/12/10 02:05:03;;;;;;;29.83;11.77;;;;;;;1.30;100.00;97589.62;2249006;79;20984;-58
2022/12/10 02:08:05;;;;;;;29.37;12.90;;;;;;;1.30;100.00;97587.88;2249069;79;21037;-59
2022/12/10 02:11:06;;;;;;;28.80;12.63;;;;;;;1.29;100.00;97602.14;2249415;79;21040;-58
2022/12/10 02:14:08;;;;;;;29.67;12.50;;;;;;;1.31;100.00;97601.19;2249014;79;21044;-58
2022/12/10 02:17:09;;;;;;;30.40;13.55;;;;;;;1.37;100.00;97605.25;2249043;79;21539;-58
2022/12/10 02:20:11;;;;;;;29.52;12.23;;;;;;;1.40;100.00;97606.87;2249118;79;21064;-59
2022/12/10 02:23:12;;;;;;;30.35;13.13;;;;;;;1.43;100.00;97604.14;2249409;79;21603;-58
2022/12/10 02:26:13;;;;;;;28.57;12.85;;;;;;;1.43;100.00;97613.19;2249266;79;21032;-58
2022/12/10 02:29:15;;;;;;;28.32;12.50;;;;;;;1.41;100.00;97624.02;2249237;79;21017;-58
2022/12/10 02:32:17;;;;;;;32.50;13.75;;;;;;;1.43;100.00;97626.11;2249150;79;21032;-58
2022/12/10 02:35:19;;;;;;;32.28;14.43;;;;;;;1.43;100.00;97632.11;2249473;79;21017;-59
2022/12/10 02:38:20;;;;;;;33.15;14.07;;;;;;;1.53;100.00;97641.59;2249657;79;20979;-59
2022/12/10 02:41:21;;;;;;;30.37;13.32;;;;;;;1.53;100.00;97637.26;2249317;79;21296;-59
2022/12/10 02:44:23;;;;;;;31.12;13.38;;;;;;;1.51;100.00;97640.38;2249161;79;21107;-59
2022/12/10 02:47:24;;;;;;;29.30;11.97;;;;;;;1.48;100.00;97623.72;2249348;79;21491;-58
2022/12/10 02:50:26;;;;;;;29.37;12.43;;;;;;;1.47;100.00;97620.73;2249152;79;21068;-59
2022/12/10 02:53:27;;;;;;;29.33;13.57;;;;;;;1.44;100.00;97620.02;2249601;79;21595;-58
2022/12/10 02:56:29;;;;;;;28.85;12.50;;;;;;;1.45;100.00;97618.69;2249401;79;21255;-59
2022/12/10 02:59:30;;;;;;;30.40;12.80;;;;;;;1.41;100.00;97621.01;2249172;79;21030;-58
2022/12/10 03:02:32;;;;;;;29.72;12.47;;;;;;;1.38;100.00;97625.02;2252590;79;21092;-59
2022/12/10 03:05:33;;;;;;;29.23;12.88;;;;;;;1.41;100.00;97624.02;2255884;79;20992;-58
2022/12/10 03:08:34;;;;;;;27.15;11.80;;;;;;;1.44;100.00;97614.84;2256418;79;21032;-58
2022/12/10 03:11:36;;;;;;;29.47;12.87;;;;;;;1.41;100.00;97613.26;2256627;79;21052;-59
2022/12/10 03:14:37;;;;;;;27.85;11.00;;;;;;;1.38;100.00;97605.64;2256633;79;21523;-59
2022/12/10 03:17:39;;;;;;;26.95;11.10;;;;;;;1.34;100.00;97600.22;2256012;79;21001;-58
2022/12/10 03:20:40;;;;;;;27.87;10.90;;;;;;;1.35;100.00;97608.33;2256758;79;21479;-58
2022/12/10 03:23:42;;;;;;;26.00;10.95;;;;;;;1.37;100.00;97613.83;2256460;79;21040;-58
2022/12/10 03:26:43;;;;;;;27.77;11.38;;;;;;;1.41;100.00;97611.97;2256323;79;21029;-58
2022/12/10 03:29:45;;;;;;;27.20;10.63;;;;;;;1.43;100.00;97612.73;2256629;79;21068;-58
2022/12/10 03:32:47;;;;;;;26.07;10.72;;;;;;;1.45;100.00;97626.87;2256177;79;21107;-58
2022/12/10 03:35:48;;;;;;;25.50;10.60;;;;;;;1.40;100.00;97632.70;2256596;79;21060;-58
2022/12/10 03:38:50;;;;;;;27.77;11.37;;;;;;;1.46;100.00;97629.84;2256446;79;21071;-59
2022/12/10 03:41:51;;;;;;;25.57;10.58;;;;;;;1.44;100.00;97634.23;2256343;79;21060;-58
2022/12/10 03:44:53;;;;;;;26.30;10.28;;;;;;;1.43;100.00;97635.16;2256094;79;21080;-58
2022/12/10 03:47:54;;;;;;;26.47;11.27;;;;;;;1.43;100.00;97632.57;2256280;79;21027;-58
2022/12/10 03:50:56;;;;;;;26.37;10.13;;;;;;;1.41;100.00;97633.06;2256197;79;21036;-58
2022/12/10 03:53:58;;;;;;;28.40;11.43;;;;;;;1.41;100.00;97631.78;2256563;79;21060;-58
2022/12/10 03:56:59;;;;;;;27.20;11.03;;;;;;;1.38;100.00;97630.19;2256165;79;21233;-58
2022/12/10 04:00:01;;;;;;;29.23;11.73;;;;;;;1.37;100.00;97633.67;2256740;79;21536;-58
2022/12/10 04:03:02;;;;;;;24.82;10.28;;;;;;;1.38;100.00;97645.23;2252113;79;21069;-59
2022/12/10 04:06:03;;;;;;;26.02;10.68;;;;;;;1.35;100.00;97659.58;2249062;79;21528;-58
2022/12/10 04:09:05;;;;;;;25.00;10.82;;;;;;;1.38;100.00;97667.66;2249102;79;21020;-58
2022/12/10 04:12:06;;;;;;;24.90;10.15;;;;;;;1.41;100.00;97666.66;2248872;79;21131;-58
2022/12/10 04:18:11;;;;;;;26.37;10.60;;;;;;;1.40;100.00;97661.13;2220339;79;20933;-58
2022/12/10 04:27:19;;;;;;;27.32;9.93;;;;;;;1.34;100.00;97659.18;2220049;79;21010;-58
2022/12/10 04:30:20;;;;;;;26.17;10.75;;;;;;;1.37;100.00;97660.80;2249107;79;20972;-59
2022/12/10 04:33:22;;;;;;;24.95;9.90;;;;;;;1.40;100.00;97663.71;2249383;79;21509;-60
2022/12/10 04:36:23;;;;;;;25.95;9.83;;;;;;;1.37;100.00;97671.14;2249054;79;21024;-59
2022/12/10 04:39:25;;;;;;;24.25;10.28;;;;;;;1.40;100.00;97675.34;2248920;79;21586;-58
2022/12/10 04:42:26;;;;;;;26.37;11.00;;;;;;;1.45;100.00;97677.26;2249168;79;21079;-59
2022/12/10 04:45:27;;;;;;;25.32;9.60;;;;;;;1.47;100.00;97676.77;2248984;79;21096;-58
2022/12/10 04:48:29;;;;;;;27.00;10.55;;;;;;;1.49;100.00;97683.98;2249210;79;20997;-58
2022/12/10 04:51:30;;;;;;;25.92;10.28;;;;;;;1.51;100.00;97691.23;2249076;79;21016;-59
2022/12/10 04:54:32;;;;;;;24.47;9.75;;;;;;;1.53;100.00;97693.29;2249329;79;21025;-58
2022/12/10 04:57:33;;;;;;;26.20;10.43;;;;;;;1.51;100.00;97684.31;2249077;79;21052;-59
2022/12/10 05:00:34;;;;;;;25.97;10.15;;;;;;;1.49;100.00;97680.11;2249223;79;21555;-58
2022/12/10 05:03:36;;;;;;;26.95;9.88;;;;;;;1.49;100.00;97681.40;2253600;79;21056;-59
2022/12/10 05:06:37;;;;;;;25.77;10.40;;;;;;;1.45;100.00;97685.02;2255851;79;21510;-59
2022/12/10 05:09:39;;;;;;;25.20;9.85;;;;;;;1.48;100.00;97687.47;2256255;79;20957;-58
2022/12/10 05:12:40;;;;;;;25.25;9.95;;;;;;;1.46;100.00;97697.04;2256127;79;21040;-59
2022/12/10 05:15:41;;;;;;;26.15;10.75;;;;;;;1.38;100.00;97699.49;2256349;79;21036;-58
2022/12/10 05:18:43;;;;;;;25.82;10.30;;;;;;;1.46;100.00;97706.09;2256135;79;21004;-59
2022/12/10 05:24:48;;;;;;;25.62;9.80;;;;;;;1.50;100.00;97716.69;2229444;79;20980;-58
2022/12/10 05:27:49;;;;;;;25.32;10.68;;;;;;;1.54;100.00;97714.36;2255987;79;21047;-58
2022/12/10 05:30:51;;;;;;;24.92;9.63;;;;;;;1.59;100.00;97731.79;2256595;79;21530;-58
2022/12/10 05:33:52;;;;;;;26.33;10.23;;;;;;;1.60;100.00;97725.73;2256090;79;21084;-59
2022/12/10 05:36:53;;;;;;;27.55;10.28;;;;;;;1.56;100.00;97725.47;2256327;79;21507;-58
2022/12/10 05:39:55;;;;;;;23.27;9.45;;;;;;;1.54;100.00;97725.99;2256478;79;21048;-59
2022/12/10 05:42:56;;;;;;;23.50;9.00;;;;;;;1.58;100.00;97724.97;2256698;79;21079;-58
2022/12/10 05:45:58;;;;;;;24.70;9.35;;;;;;;1.55;100.00;97728.52;2256506;79;21052;-58
2022/12/10 05:48:59;;;;;;;25.77;9.95;;;;;;;1.54;100.00;97729.87;2256366;79;21025;-58
2022/12/10 05:52:00;;;;;;;25.15;9.18;;;;;;;1.51;100.00;97732.59;2256485;79;21029;-59
2022/12/10 05:55:02;;;;;;;25.88;10.68;;;;;;;1.48;100.00;97732.26;2256522;79;21021;-59
2022/12/10 05:58:03;;;;;;;27.58;10.55;;;;;;;1.44;100.00;97744.05;2256636;79;21550;-58
2022/12/10 06:01:05;;;;;;;27.00;11.00;;;;;;;1.42;100.00;97747.99;2256454;79;21072;-59
2022/12/10 06:04:06;;;;;;;28.12;10.75;;;;;;;1.38;100.00;97748.59;2250951;79;21544;-58
2022/12/10 06:07:07;;;;;;;28.87;11.50;;;;;;;1.38;100.00;97748.59;2249542;79;21005;-58
2022/12/10 06:10:09;;;;;;;28.65;12.20;;;;;;;1.36;100.00;97753.42;2249467;79;21020;-58
2022/12/10 06:13:10;;;;;;;31.40;13.10;;;;;;;1.37;100.00;97755.94;2249555;79;21001;-58
2022/12/10 06:16:12;;;;;;;32.48;13.83;;;;;;;1.42;100.00;97773.01;2249451;79;20956;-58
2022/12/10 06:19:13;;;;;;;34.60;14.18;;;;;;;1.41;100.00;97773.91;2249713;79;21521;-58
2022/12/10 06:22:14;;;;;;;33.42;14.70;;;;;;;1.34;100.00;97771.58;2249439;79;21111;-58
2022/12/10 06:25:16;;;;;;;36.97;15.40;;;;;;;1.37;100.00;97772.73;2249336;79;21626;-58
2022/12/10 06:28:18;;;;;;;36.00;15.37;;;;;;;1.30;100.00;97782.10;2249424;79;21265;-58
2022/12/10 06:31:20;;;;;;;38.20;16.20;;;;;;;1.26;100.00;97781.37;2249117;79;21583;-58
2022/12/10 06:34:21;;;;;;;39.58;17.05;;;;;;;1.23;100.00;97787.12;2249208;79;21025;-58
2022/12/10 06:37:22;;;;;;;39.63;16.57;;;;;;;1.25;100.00;97786.59;2249169;79;21524;-58
2022/12/10 06:40:24;;;;;;;40.00;16.85;;;;;;;1.23;100.00;97799.58;2249320;79;21013;-59
2022/12/10 06:43:25;;;;;;;40.88;17.65;;;;;;;1.24;100.00;97790.11;2249179;79;21040;-58
2022/12/10 06:46:28;;;;;;;40.40;18.30;;;;;;;1.24;100.00;97783.65;2249406;79;21073;-58
2022/12/10 06:49:29;;;;;;;40.55;16.97;;;;;;;1.27;100.00;97779.64;2249331;79;21045;-58
2022/12/10 06:52:31;;;;;;;44.15;19.92;;;;;;;1.25;100.00;97779.71;2249314;79;21013;-58
2022/12/10 06:55:32;;;;;;;45.78;19.62;;;;;;;1.24;100.00;97771.56;2249123;79;21060;-58
2022/12/10 06:58:34;;;;;;;42.15;17.42;;;;;;;1.26;100.00;97767.16;2249466;79;21019;-58
2022/12/10 07:01:35;;;;;;;47.90;20.77;;;;;;;1.20;100.00;97762.25;2249200;79;21080;-58
2022/12/10 07:04:37;;;;;;;47.65;20.05;;;;;;;1.16;100.00;97753.77;2249052;79;21016;-58
2022/12/10 07:07:38;;;;;;;48.52;21.33;;;;;;;1.14;100.00;97745.71;2249124;79;21029;-60
2022/12/10 07:10:40;;;;;;;50.40;21.45;;;;;;;1.16;100.00;97752.94;2249202;79;21053;-58
2022/12/10 07:13:42;;;;;;;51.90;22.07;;;;;;;1.12;100.00;97754.81;2249459;79;21032;-59
2022/12/10 07:16:43;;;;;;;49.38;21.33;;;;;;;1.10;100.00;97757.06;2249322;79;21783;-58
2022/12/10 07:19:45;;;;;;;49.40;21.68;;;;;;;1.11;100.00;97766.04;2249237;79;21073;-58
2022/12/10 07:22:46;;;;;;;51.80;21.70;;;;;;;1.07;100.00;97786.42;2249279;79;21084;-58
2022/12/10 07:25:48;;;;;;;49.88;21.97;;;;;;;1.04;100.00;97783.97;2249248;79;21192;-59
2022/12/10 07:28:49;;;;;;;49.90;20.57;;;;;;;0.97;100.00;97782.06;2249139;79;21044;-58
2022/12/10 07:31:51;;;;;;;49.42;21.52;;;;;;;0.94;100.00;97783.48;2249417;79;20941;-58
2022/12/10 07:34:52;;;;;;;49.23;20.48;;;;;;;1.03;100.00;97789.59;2249154;79;21008;-58
2022/12/10 07:37:53;;;;;;;50.98;21.48;;;;;;;1.09;100.00;97803.16;2249275;79;21496;-58
2022/12/10 07:40:55;;;;;;;49.25;21.82;;;;;;;1.15;100.00;97806.35;2249131;79;21061;-58
2022/12/10 07:43:56;;;;;;;48.83;21.52;;;;;;;1.14;100.00;97814.16;2249475;79;21558;-58
2022/12/10 07:46:58;;;;;;;48.85;19.90;;;;;;;1.19;100.00;97816.95;2249223;79;21013;-59
2022/12/10 07:50:00;;;;;;;49.23;19.92;;;;;;;1.20;100.00;97819.08;2249189;79;21586;-58
2022/12/10 07:53:01;;;;;;;48.90;21.87;;;;;;;1.20;100.00;97820.38;2249374;79;21028;-59
2022/12/10 07:56:02;;;;;;;42.90;18.50;;;;;;;1.17;100.00;97826.95;2249068;79;21045;-58
2022/12/10 07:59:04;;;;;;;49.45;21.10;;;;;;;1.24;100.00;97823.23;2249240;79;21017;-58
2022/12/10 08:02:06;;;;;;;49.75;21.20;;;;;;;1.25;100.00;97815.88;2249012;79;21121;-58
2022/12/10 08:05:08;;;;;;;51.48;21.60;;;;;;;1.15;100.00;97819.27;2249103;79;21081;-59
2022/12/10 08:08:09;;;;;;;50.40;20.82;;;;;;;1.12;100.00;97815.95;2249095;79;21084;-58
2022/12/10 08:11:10;;;;;;;49.40;21.65;;;;;;;1.12;100.00;97830.15;2249366;79;21568;-59
2022/12/10 08:14:12;;;;;;;49.42;21.95;;;;;;;1.11;100.00;97840.11;2249081;79;21045;-58
2022/12/10 08:17:13;;;;;;;50.17;20.00;;;;;;;1.17;100.00;97839.41;2248810;79;21574;-59
2022/12/10 08:20:15;;;;;;;50.27;20.47;;;;;;;1.20;100.00;97844.91;2249245;79;21065;-58
2022/12/10 08:23:16;;;;;;;50.55;21.33;;;;;;;1.13;100.00;97853.80;2249119;79;21029;-58
2022/12/10 08:26:18;;;;;;;46.13;20.63;;;;;;;1.25;100.00;97863.67;2249426;79;21053;-58
2022/12/10 08:29:20;;;;;;;51.77;21.33;;;;;;;1.35;100.00;97861.55;2249471;79;21077;-58
2022/12/10 08:32:22;;;;;;;48.60;20.37;;;;;;;1.35;100.00;97863.70;2249500;79;21044;-58
2022/12/10 08:35:23;;;;;;;47.67;19.60;;;;;;;1.29;100.00;97869.55;2249168;79;21068;-58
2022/12/10 08:38:25;;;;;;;48.42;20.62;;;;;;;1.33;100.00;97865.95;2249339;79;21033;-59
2022/12/10 08:41:26;;;;;;;50.75;19.62;;;;;;;1.35;100.00;97858.97;2249215;79;21040;-58
2022/12/10 08:44:28;;;;;;;47.70;20.32;;;;;;;1.31;100.00;97862.13;2249342;79;21574;-58
2022/12/10 08:47:29;;;;;;;49.42;20.80;;;;;;;1.27;100.00;97861.86;2249161;79;21050;-59
2022/12/10 08:50:30;;;;;;;50.63;21.00;;;;;;;1.25;100.00;97862.81;2249234;79;21491;-59
2022/12/10 08:53:32;;;;;;;47.98;20.65;;;;;;;1.25;100.00;97856.35;2249328;79;21069;-59
2022/12/10 08:56:34;;;;;;;47.38;20.52;;;;;;;1.30;100.00;97853.16;2249170;79;21032;-59
2022/12/10 08:59:35;;;;;;;47.85;19.73;;;;;;;1.33;100.00;97852.56;2249225;79;21024;-59
2022/12/10 09:02:37;;;;;;;50.47;20.30;;;;;;;1.35;100.00;97840.45;2249724;79;21507;-58
2022/12/10 09:05:39;;;;;;;47.27;19.15;;;;;;;1.38;100.00;97847.25;2248822;79;21043;-59
2022/12/10 09:08:40;;;;;;;47.78;19.05;;;;;;;1.40;100.00;97854.47;2249134;79;21524;-59
2022/12/10 09:11:45;;;;;;;48.15;19.65;;;;;;;1.35;100.00;97859.83;2219967;79;21000;-59
2022/12/10 09:14:47;;;;;;;47.08;19.05;;;;;;;1.38;100.00;97861.45;2249136;79;21087;-59
2022/12/10 09:17:48;;;;;;;47.75;20.00;;;;;;;1.41;100.00;97854.01;2249126;79;21036;-58
2022/12/10 09:20:50;;;;;;;41.80;17.23;;;;;;;1.37;100.00;97831.34;2249204;79;21066;-59
2022/12/10 09:23:51;;;;;;;47.75;19.42;;;;;;;1.32;100.00;97827.66;2248627;79;21070;-58
2022/12/10 09:26:53;;;;;;;45.80;18.93;;;;;;;1.28;100.00;97836.85;2249421;79;20969;-58
2022/12/10 09:29:54;;;;;;;44.38;16.93;;;;;;;1.35;100.00;97842.17;2249028;79;21080;-59
2022/12/10 09:32:56;;;;;;;45.48;18.95;;;;;;;1.31;100.00;97837.59;2249327;79;21540;-58
2022/12/10 09:35:57;;;;;;;41.28;18.02;;;;;;;1.28;100.00;97838.14;2249025;79;21056;-58
2022/12/10 09:38:58;;;;;;;40.85;17.12;;;;;;;1.24;100.00;97843.06;2249415;79;21492;-58
2022/12/10 09:42:00;;;;;;;43.17;19.00;;;;;;;1.17;100.00;97850.20;2248987;79;21073;-59
2022/12/10 09:45:02;;;;;;;43.33;17.73;;;;;;;1.19;100.00;97843.22;2249264;79;21564;-58
2022/12/10 09:48:04;;;;;;;46.13;18.97;;;;;;;1.25;100.00;97845.59;2249220;79;21061;-58
2022/12/10 09:51:05;;;;;;;41.53;17.12;;;;;;;1.30;100.00;97841.06;2249214;79;21547;-58
2022/12/10 09:54:07;;;;;;;46.90;19.15;;;;;;;1.29;100.00;97825.62;2249157;79;21040;-59
2022/12/10 09:57:08;;;;;;;42.58;17.48;;;;;;;1.19;100.00;97832.45;2248969;79;21037;-58
2022/12/10 10:00:09;;;;;;;40.43;17.42;;;;;;;1.23;100.00;97818.95;2249294;79;21013;-58
2022/12/10 10:03:11;;;;;;;43.60;18.15;;;;;;;1.31;100.00;97816.92;2248966;79;21040;-58
2022/12/10 10:06:13;;;;;;;42.27;17.20;;;;;;;1.39;100.00;97824.35;2249322;79;21045;-58
2022/12/10 10:09:14;;;;;;;42.27;18.87;;;;;;;1.41;100.00;97817.83;2248911;79;21044;-59
2022/12/10 10:12:16;;;;;;;41.35;17.70;;;;;;;1.33;100.00;97814.27;2249278;79;20973;-58
2022/12/10 10:15:17;;;;;;;40.07;16.53;;;;;;;1.32;100.00;97816.03;2249049;79;20996;-58
2022/12/10 10:18:19;;;;;;;41.30;17.45;;;;;;;1.27;100.00;97808.06;2249140;79;21520;-59
2022/12/10 10:21:21;;;;;;;40.58;16.27;;;;;;;1.27;100.00;97809.36;2248927;79;20993;-58
2022/12/10 10:24:22;;;;;;;38.75;15.53;;;;;;;1.18;100.00;97814.44;2249413;79;21546;-58
2022/12/10 10:27:26;;;;;;;36.73;15.50;;;;;;;1.23;100.00;97825.88;2249271;79;21036;-58
2022/12/10 10:30:27;;;;;;;38.13;15.53;;;;;;;1.24;100.00;97832.73;2220244;79;21008;-58
2022/12/10 10:33:29;;;;;;;37.73;15.30;;;;;;;1.22;100.00;97823.72;2249379;79;21084;-58
2022/12/10 10:36:30;;;;;;;37.38;15.30;;;;;;;1.18;100.00;97828.19;2249145;79;21159;-58
2022/12/10 10:39:32;;;;;;;36.45;14.85;;;;;;;1.27;100.00;97826.98;2248992;79;21051;-58
2022/12/10 10:42:33;;;;;;;35.92;14.65;;;;;;;1.26;100.00;97815.41;2249496;79;20960;-58
2022/12/10 10:45:35;;;;;;;36.33;14.83;;;;;;;1.27;100.00;97817.94;2249038;79;21064;-59
2022/12/10 10:48:37;;;;;;;35.63;15.33;;;;;;;1.32;100.00;97821.19;2249488;79;21799;-58
2022/12/10 10:51:38;;;;;;;35.92;13.85;;;;;;;1.32;100.00;97821.19;2249431;79;21583;-58
2022/12/10 10:54:40;;;;;;;34.03;13.08;;;;;;;1.36;100.00;97809.81;2249233;79;21087;-58
2022/12/10 10:57:42;;;;;;;33.47;13.87;;;;;;;1.29;100.00;97818.70;2249667;79;21077;-58
2022/12/10 11:00:43;;;;;;;31.27;12.03;;;;;;;1.23;100.00;97824.58;2249519;79;21356;-59
2022/12/10 11:03:45;;;;;;;34.38;13.80;;;;;;;1.27;100.00;97826.98;2250485;79;21555;-58
2022/12/10 11:06:46;;;;;;;35.60;13.20;;;;;;;1.26;100.00;97825.29;2256357;79;21040;-58
2022/12/10 11:09:48;;;;;;;33.18;14.38;;;;;;;1.22;100.00;97831.47;2256386;79;21115;-58
2022/12/10 11:12:49;;;;;;;33.08;14.55;;;;;;;1.28;100.00;97826.52;2256267;79;21012;-58
2022/12/10 11:15:51;;;;;;;31.83;12.53;;;;;;;1.29;100.00;97831.63;2256156;79;21040;-58
2022/12/10 11:18:53;;;;;;;29.40;10.93;;;;;;;1.32;100.00;97830.67;2254892;79;21118;-58
2022/12/10 11:21:54;;;;;;;29.23;11.63;;;;;;;1.28;100.00;97811.88;2256533;79;21024;-58
2022/12/10 11:24:56;;;;;;;30.25;11.65;;;;;;;1.19;100.00;97812.22;2256578;79;21073;-58
2022/12/10 11:27:58;;;;;;;30.87;12.10;;;;;;;1.15;100.00;97808.94;2256489;79;21065;-59
2022/12/10 11:30:59;;;;;;;34.38;13.88;;;;;;;1.16;100.00;97810.59;2256220;79;21076;-59
2022/12/10 11:34:01;;;;;;;37.80;15.28;;;;;;;1.15;100.00;97815.39;2255439;79;21059;-58
2022/12/10 11:40:06;;;;;;;38.28;15.08;;;;;;;1.24;100.00;97824.98;2228040;79;21051;-58
2022/12/10 11:43:08;;;;;;;30.20;12.18;;;;;;;1.36;100.00;97817.56;2255187;79;21048;-58
2022/12/10 11:46:09;;;;;;;32.35;12.73;;;;;;;1.40;100.00;97822.17;2255851;79;21559;-58
2022/12/10 11:49:11;;;;;;;28.60;11.35;;;;;;;1.45;100.00;97821.98;2255983;79;21044;-58
2022/12/10 11:52:12;;;;;;;31.35;12.30;;;;;;;1.41;100.00;97837.21;2256301;79;21515;-58
2022/12/10 11:55:14;;;;;;;29.50;11.70;;;;;;;1.52;100.00;97841.50;2256451;79;21041;-58
2022/12/10 11:58:15;;;;;;;30.85;12.37;;;;;;;1.58;100.00;97845.16;2256147;79;21325;-58
2022/12/10 12:01:18;;;;;;;30.27;12.50;;;;;;;1.69;100.00;97849.42;2256019;79;21004;-59
2022/12/10 12:04:20;;;;;;;29.35;11.35;;;;;;;1.68;100.00;97846.47;2254501;79;21591;-59
2022/12/10 12:07:21;;;;;;;30.40;12.30;;;;;;;1.75;100.00;97853.50;2249137;79;21069;-58
2022/12/10 12:10:23;;;;;;;32.27;12.57;;;;;;;1.79;100.00;97850.35;2249655;79;21556;-59
2022/12/10 12:13:24;;;;;;;30.05;12.07;;;;;;;1.85;100.00;97853.97;2249111;79;21025;-58
2022/12/10 12:16:26;;;;;;;31.68;12.50;;;;;;;1.89;100.00;97851.19;2249102;79;21857;-58
2022/12/10 12:19:28;;;;;;;32.40;12.88;;;;;;;1.77;100.00;97848.27;2248879;79;21001;-59
2022/12/10 12:22:30;;;;;;;29.90;11.60;;;;;;;1.67;100.00;97851.70;2249045;79;21602;-59
2022/12/10 12:25:32;;;;;;;28.57;10.98;;;;;;;1.61;100.00;97848.05;2248865;79;21012;-58
2022/12/10 12:28:34;;;;;;;30.95;11.18;;;;;;;1.54;100.00;97831.97;2249383;79;21326;-59
2022/12/10 12:31:35;;;;;;;32.75;11.40;;;;;;;1.44;100.00;97826.31;2249097;79;21040;-58
2022/12/10 12:34:37;;;;;;;30.27;11.47;;;;;;;1.45;100.00;97812.94;2249618;79;21536;-58
2022/12/10 12:37:38;;;;;;;27.22;10.38;;;;;;;1.42;100.00;97809.19;2249036;79;21195;-58
2022/12/10 12:40:40;;;;;;;28.38;11.55;;;;;;;1.48;100.00;97817.55;2249057;79;21520;-58
2022/12/10 12:43:42;;;;;;;26.62;10.82;;;;;;;1.55;100.00;97814.23;2249219;79;21064;-59
2022/12/10 12:46:43;;;;;;;28.97;11.93;;;;;;;1.56;100.00;97819.34;2249494;79;21524;-60
2022/12/10 12:49:45;;;;;;;29.07;11.90;;;;;;;1.46;100.00;97823.20;2249362;79;21041;-58
2022/12/10 12:52:46;;;;;;;30.75;11.88;;;;;;;1.48;100.00;97827.88;2248959;79;21634;-58
2022/12/10 12:55:49;;;;;;;28.07;11.03;;;;;;;1.51;100.00;97828.22;2249328;79;21059;-59
2022/12/10 12:58:51;;;;;;;31.97;12.68;;;;;;;1.51;100.00;97834.22;2249333;79;21293;-58
2022/12/10 13:01:52;;;;;;;29.67;12.58;;;;;;;1.52;100.00;97831.17;2249038;79;21068;-59
2022/12/10 13:04:54;;;;;;;29.57;12.20;;;;;;;1.57;100.00;97827.95;2251832;79;21081;-59
2022/12/10 13:07:56;;;;;;;29.57;12.33;;;;;;;1.56;100.00;97845.66;2256348;79;21296;-59
2022/12/10 13:10:57;;;;;;;29.02;11.10;;;;;;;1.52;100.00;97844.95;2256519;79;21543;-58
2022/12/10 13:13:59;;;;;;;28.70;11.95;;;;;;;1.44;100.00;97844.41;2256217;79;21072;-59
2022/12/10 13:17:00;;;;;;;30.92;12.82;;;;;;;1.38;100.00;97847.25;2256105;79;21067;-58
2022/12/10 13:20:02;;;;;;;31.10;12.77;;;;;;;1.42;100.00;97850.53;2256194;79;21096;-58
2022/12/10 13:23:03;;;;;;;31.57;13.70;;;;;;;1.46;100.00;97856.80;2256118;79;21024;-58
2022/12/10 13:26:05;;;;;;;30.57;12.87;;;;;;;1.45;100.00;97857.73;2256431;79;21060;-58
2022/12/10 13:29:07;;;;;;;;;;;;;;;1.42;100.00;97844.07;2259115;79;21532;-59
2022/12/10 13:32:10;;;;;;;30.20;12.60;;;;;;;1.36;100.00;97848.56;2256135;79;20125;-58
2022/12/10 13:35:12;;;;;;;;;;;;;;;1.28;100.00;97844.61;2258974;79;20961;-58
2022/12/10 13:38:14;;;;;;;32.23;13.32;;;;;;;1.25;100.00;97839.56;2256398;79;20162;-58
2022/12/10 13:44:24;;;;;;;42.25;14.93;;;;;;;1.16;100.00;97842.88;2229429;79;20984;-60
2022/12/10 13:47:26;;;;;;;51.45;19.20;;;;;;;1.08;100.00;97841.50;2229363;79;21554;-58
2022/12/10 13:50:28;;;;;;;122.85;40.05;;;;;;;0.98;100.00;97842.32;2256200;79;21005;-58
2022/12/10 13:53:29;;;;;;;56.92;22.15;;;;;;;0.98;100.00;97841.86;2256490;79;21052;-58
2022/12/10 13:56:31;;;;;;;34.20;14.53;;;;;;;0.97;100.00;97840.17;2256406;79;21033;-58
2022/12/10 13:59:33;;;;;;;34.40;13.83;;;;;;;1.04;100.00;97841.62;2256486;79;21696;-58
2022/12/10 14:02:34;;;;;;;31.70;13.03;;;;;;;1.03;100.00;97843.83;2256388;79;21067;-58
2022/12/10 14:05:36;;;;;;;31.53;13.33;;;;;;;0.98;100.00;97854.77;2252874;79;21605;-58
2022/12/10 14:08:38;;;;;;;34.13;13.35;;;;;;;0.96;100.00;97864.77;2249190;79;21028;-58
2022/12/10 14:11:40;;;;;;;31.20;12.10;;;;;;;0.98;100.00;97868.14;2249449;79;21033;-58
2022/12/10 14:14:41;;;;;;;31.82;12.20;;;;;;;1.01;100.00;97868.03;2248994;79;21071;-58